createdAt,value
2018-02-16T00:00:17.322Z,1010.40
2018-02-16T00:01:17.351Z,1010.36
2018-02-16T00:02:17.353Z,1010.40
2018-02-16T00:03:17.371Z,1010.43
2018-02-16T00:04:17.377Z,1010.44
2018-02-16T00:05:17.411Z,1010.43
2018-02-16T00:06:17.392Z,1010.43
2018-02-16T00:07:17.409Z,1010.49
2018-02-16T00:08:17.422Z,1010.48
2018-02-16T00:09:17.435Z,1010.48
2018-02-16T00:10:17.438Z,1010.51
2018-02-16T00:11:17.457Z,1010.46
2018-02-16T00:12:17.472Z,1010.49
2018-02-16T00:13:17.478Z,1010.52
2018-02-16T00:14:17.487Z,1010.54
2018-02-16T00:15:17.494Z,1010.53
2018-02-16T00:16:17.500Z,1010.52
2018-02-16T00:17:17.529Z,1010.56
2018-02-16T00:18:17.534Z,1010.60
2018-02-16T00:19:17.547Z,1010.58
2018-02-16T00:20:17.555Z,1010.53
2018-02-16T00:21:17.564Z,1010.57
2018-02-16T00:22:17.574Z,1010.57
2018-02-16T00:23:17.595Z,1010.61
2018-02-16T00:24:17.602Z,1010.67
2018-02-16T00:25:17.616Z,1010.67
2018-02-16T00:26:17.620Z,1010.62
2018-02-16T00:27:17.629Z,1010.64
2018-02-16T00:28:17.656Z,1010.65
2018-02-16T00:29:17.654Z,1010.61
2018-02-16T00:30:17.669Z,1010.65
2018-02-16T00:31:17.674Z,1010.68
2018-02-16T00:32:17.686Z,1010.68
2018-02-16T00:33:17.710Z,1010.68
2018-02-16T00:34:17.717Z,1010.70
2018-02-16T00:35:17.724Z,1010.74
2018-02-16T00:36:17.734Z,1010.75
2018-02-16T00:37:17.737Z,1010.80
2018-02-16T00:38:17.767Z,1010.87
2018-02-16T00:39:17.767Z,1010.84
2018-02-16T00:40:17.780Z,1010.78
2018-02-16T00:41:17.790Z,1010.88
2018-02-16T00:42:17.801Z,1010.90
2018-02-16T00:43:17.823Z,1011.00
2018-02-16T00:44:17.847Z,1010.98
2018-02-16T00:45:17.838Z,1011.00
2018-02-16T00:46:17.849Z,1011.03
2018-02-16T00:47:17.853Z,1011.05
2018-02-16T00:48:17.873Z,1011.04
2018-02-16T00:49:17.899Z,1011.07
2018-02-16T00:50:17.895Z,1011.13
2018-02-16T00:51:17.906Z,1011.14
2018-02-16T00:52:17.919Z,1011.11
2018-02-16T00:53:17.932Z,1011.16
2018-02-16T00:54:17.949Z,1011.20
2018-02-16T00:55:17.951Z,1011.15
2018-02-16T00:56:17.961Z,1011.16
2018-02-16T00:57:17.974Z,1011.18
2018-02-16T00:58:17.990Z,1011.14
2018-02-16T00:59:18.001Z,1011.17
2018-02-16T01:00:18.010Z,1011.17
2018-02-16T01:01:18.014Z,1011.20
2018-02-16T01:02:18.030Z,1011.17
2018-02-16T01:03:18.047Z,1011.14
2018-02-16T01:04:18.060Z,1011.18
2018-02-16T01:05:18.072Z,1011.21
2018-02-16T01:06:18.072Z,1011.18
2018-02-16T01:07:18.103Z,1011.18
2018-02-16T01:08:18.135Z,1011.18
2018-02-16T01:09:18.116Z,1011.20
2018-02-16T01:10:18.119Z,1011.24
2018-02-16T01:11:18.132Z,1011.24
2018-02-16T01:12:18.155Z,1011.24
2018-02-16T01:13:18.159Z,1011.24
2018-02-16T01:14:18.173Z,1011.28
2018-02-16T01:15:18.177Z,1011.31
2018-02-16T01:16:18.186Z,1011.32
2018-02-16T01:17:18.213Z,1011.33
2018-02-16T01:18:18.224Z,1011.34
2018-02-16T01:19:18.228Z,1011.32
2018-02-16T01:20:18.245Z,1011.32
2018-02-16T01:21:18.242Z,1011.35
2018-02-16T01:22:18.270Z,1011.34
2018-02-16T01:23:18.278Z,1011.31
2018-02-16T01:24:18.284Z,1011.35
2018-02-16T01:25:18.297Z,1011.35
2018-02-16T01:26:18.315Z,1011.32
2018-02-16T01:27:18.329Z,1011.35
2018-02-16T01:28:18.336Z,1011.32
2018-02-16T01:29:18.339Z,1011.30
2018-02-16T01:30:18.362Z,1011.28
2018-02-16T01:31:18.369Z,1011.28
2018-02-16T01:32:18.377Z,1011.27
2018-02-16T01:33:18.391Z,1011.20
2018-02-16T01:34:18.398Z,1011.22
2018-02-16T01:35:18.412Z,1011.15
2018-02-16T01:36:18.432Z,1011.15
2018-02-16T01:37:18.436Z,1011.12
2018-02-16T01:38:18.453Z,1011.15
2018-02-16T01:39:18.452Z,1011.15
2018-02-16T01:40:18.463Z,1011.26
2018-02-16T01:41:18.491Z,1011.29
2018-02-16T01:42:18.491Z,1011.23
2018-02-16T01:43:18.510Z,1011.34
2018-02-16T01:44:18.517Z,1011.35
2018-02-16T01:45:18.519Z,1011.31
2018-02-16T01:46:18.546Z,1011.37
2018-02-16T01:47:18.550Z,1011.36
2018-02-16T01:48:18.558Z,1011.32
2018-02-16T01:49:18.573Z,1011.40
2018-02-16T01:50:18.610Z,1011.33
2018-02-16T01:51:18.600Z,1011.40
2018-02-16T01:52:18.615Z,1011.46
2018-02-16T01:53:18.614Z,1011.48
2018-02-16T01:54:18.633Z,1011.47
2018-02-16T01:55:18.634Z,1011.48
2018-02-16T01:56:18.648Z,1011.52
2018-02-16T01:57:18.667Z,1011.51
2018-02-16T01:58:18.673Z,1011.52
2018-02-16T01:59:18.687Z,1011.52
2018-02-16T02:00:18.699Z,1011.54
2018-02-16T02:01:18.699Z,1011.51
2018-02-16T02:02:18.727Z,1011.52
2018-02-16T02:03:18.734Z,1011.53
2018-02-16T02:04:18.736Z,1011.54
2018-02-16T02:05:18.749Z,1011.51
2018-02-16T02:06:18.759Z,1011.55
2018-02-16T02:07:18.772Z,1011.57
2018-02-16T02:08:18.790Z,1011.57
2018-02-16T02:09:18.795Z,1011.60
2018-02-16T02:10:18.811Z,1011.48
2018-02-16T02:11:18.811Z,1011.49
2018-02-16T02:12:18.821Z,1011.50
2018-02-16T02:13:18.834Z,1011.52
2018-02-16T02:14:18.869Z,1011.52
2018-02-16T02:15:18.865Z,1011.50
2018-02-16T02:16:18.875Z,1011.52
2018-02-16T02:17:18.879Z,1011.55
2018-02-16T02:18:18.894Z,1011.53
2018-02-16T02:19:18.920Z,1011.59
2018-02-16T02:20:18.921Z,1011.64
2018-02-16T02:21:18.936Z,1011.60
2018-02-16T02:22:18.936Z,1011.64
2018-02-16T02:23:18.966Z,1011.66
2018-02-16T02:24:18.959Z,1011.68
2018-02-16T02:25:18.965Z,1011.70
2018-02-16T02:26:18.990Z,1011.67
2018-02-16T02:27:18.997Z,1011.74
2018-02-16T02:28:19.017Z,1011.75
2018-02-16T02:29:19.013Z,1011.74
2018-02-16T02:30:19.025Z,1011.82
2018-02-16T02:31:19.049Z,1011.86
2018-02-16T02:32:19.052Z,1011.92
2018-02-16T02:33:19.057Z,1011.89
2018-02-16T02:34:19.079Z,1011.90
2018-02-16T02:35:19.078Z,1011.92
2018-02-16T02:36:19.086Z,1012.03
2018-02-16T02:37:19.111Z,1012.04
2018-02-16T02:38:19.123Z,1012.08
2018-02-16T02:39:19.128Z,1012.03
2018-02-16T02:40:19.136Z,1012.05
2018-02-16T02:41:19.147Z,1012.05
2018-02-16T02:42:19.172Z,1012.12
2018-02-16T02:43:19.174Z,1012.08
2018-02-16T02:44:19.182Z,1012.10
2018-02-16T02:45:19.197Z,1012.18
2018-02-16T02:46:19.206Z,1012.08
2018-02-16T02:47:19.214Z,1012.10
2018-02-16T02:48:19.234Z,1012.07
2018-02-16T02:49:19.239Z,1012.14
2018-02-16T02:50:19.263Z,1012.19
2018-02-16T02:51:19.255Z,1012.18
2018-02-16T02:52:19.264Z,1012.16
2018-02-16T02:53:19.292Z,1012.16
2018-02-16T02:54:19.296Z,1012.18
2018-02-16T02:55:19.309Z,1012.19
2018-02-16T02:56:19.321Z,1012.22
2018-02-16T02:57:19.323Z,1012.27
2018-02-16T02:58:19.340Z,1012.22
2018-02-16T02:59:19.353Z,1012.25
2018-02-16T03:00:19.365Z,1012.25
2018-02-16T03:01:19.373Z,1012.32
2018-02-16T03:02:19.381Z,1012.34
2018-02-16T03:03:19.395Z,1012.34
2018-02-16T03:04:19.401Z,1012.37
2018-02-16T03:05:19.419Z,1012.34
2018-02-16T03:06:19.434Z,1012.39
2018-02-16T03:07:19.437Z,1012.40
2018-02-16T03:08:19.446Z,1012.37
2018-02-16T03:09:19.459Z,1012.44
2018-02-16T03:10:19.479Z,1012.42
2018-02-16T03:11:19.490Z,1012.40
2018-02-16T03:12:19.502Z,1012.46
2018-02-16T03:13:19.503Z,1012.42
2018-02-16T03:14:19.515Z,1012.41
2018-02-16T03:15:19.535Z,1012.45
2018-02-16T03:16:19.543Z,1012.49
2018-02-16T03:17:19.557Z,1012.45
2018-02-16T03:18:19.563Z,1012.51
2018-02-16T03:19:19.569Z,1012.53
2018-02-16T03:20:19.590Z,1012.54
2018-02-16T03:21:19.602Z,1012.53
2018-02-16T03:22:19.610Z,1012.54
2018-02-16T03:23:19.622Z,1012.54
2018-02-16T03:24:19.628Z,1012.54
2018-02-16T03:25:19.645Z,1012.59
2018-02-16T03:26:19.662Z,1012.58
2018-02-16T03:27:19.664Z,1012.55
2018-02-16T03:28:19.676Z,1012.53
2018-02-16T03:29:19.686Z,1012.55
2018-02-16T03:30:19.714Z,1012.58
2018-02-16T03:31:19.716Z,1012.57
2018-02-16T03:32:19.728Z,1012.62
2018-02-16T03:33:19.729Z,1012.61
2018-02-16T03:34:19.741Z,1012.62
2018-02-16T03:35:19.758Z,1012.66
2018-02-16T03:36:19.767Z,1012.67
2018-02-16T03:37:19.784Z,1012.70
2018-02-16T03:38:19.787Z,1012.67
2018-02-16T03:39:19.803Z,1012.72
2018-02-16T03:40:19.823Z,1012.71
2018-02-16T03:41:19.827Z,1012.73
2018-02-16T03:42:19.837Z,1012.75
2018-02-16T03:43:19.842Z,1012.75
2018-02-16T03:44:19.851Z,1012.77
2018-02-16T03:45:19.893Z,1012.71
2018-02-16T03:46:19.885Z,1012.69
2018-02-16T03:47:19.900Z,1012.72
2018-02-16T03:48:19.906Z,1012.73
2018-02-16T03:49:19.911Z,1012.70
2018-02-16T03:50:19.935Z,1012.70
2018-02-16T03:51:19.941Z,1012.73
2018-02-16T03:52:19.953Z,1012.72
2018-02-16T03:53:19.962Z,1012.76
2018-02-16T03:54:19.981Z,1012.76
2018-02-16T03:55:19.990Z,1012.80
2018-02-16T03:56:20.002Z,1012.75
2018-02-16T03:57:20.012Z,1012.75
2018-02-16T03:58:20.020Z,1012.79
2018-02-16T03:59:20.038Z,1012.80
2018-02-16T04:00:20.048Z,1012.81
2018-02-16T04:01:20.060Z,1012.81
2018-02-16T04:02:20.078Z,1012.83
2018-02-16T04:03:20.074Z,1012.84
2018-02-16T04:04:20.087Z,1012.85
2018-02-16T04:05:20.101Z,1012.85
2018-02-16T04:06:20.115Z,1012.85
2018-02-16T04:07:20.132Z,1012.81
2018-02-16T04:08:20.130Z,1012.86
2018-02-16T04:09:20.149Z,1012.85
2018-02-16T04:10:20.164Z,1012.88
2018-02-16T04:11:20.175Z,1012.89
2018-02-16T04:12:20.182Z,1012.93
2018-02-16T04:13:20.186Z,1012.93
2018-02-16T04:14:20.197Z,1012.95
2018-02-16T04:15:20.208Z,1012.97
2018-02-16T04:16:20.224Z,1012.98
2018-02-16T04:17:20.241Z,1012.95
2018-02-16T04:18:20.247Z,1013.03
2018-02-16T04:19:20.259Z,1012.99
2018-02-16T04:20:20.266Z,1013.04
2018-02-16T04:21:20.270Z,1013.01
2018-02-16T04:22:20.297Z,1013.06
2018-02-16T04:23:20.303Z,1013.02
2018-02-16T04:24:20.311Z,1013.02
2018-02-16T04:25:20.320Z,1013.02
2018-02-16T04:26:20.331Z,1013.00
2018-02-16T04:27:20.341Z,1013.02
2018-02-16T04:28:20.353Z,1013.02
2018-02-16T04:29:20.366Z,1013.07
2018-02-16T04:30:20.380Z,1013.11
2018-02-16T04:31:20.387Z,1013.09
2018-02-16T04:32:20.395Z,1013.06
2018-02-16T04:33:20.408Z,1013.12
2018-02-16T04:34:20.411Z,1013.10
2018-02-16T04:35:20.437Z,1013.15
2018-02-16T04:36:20.444Z,1013.14
2018-02-16T04:37:20.449Z,1013.16
2018-02-16T04:38:20.461Z,1013.19
2018-02-16T04:39:20.466Z,1013.17
2018-02-16T04:40:20.480Z,1013.19
2018-02-16T04:41:20.490Z,1013.17
2018-02-16T04:42:20.493Z,1013.19
2018-02-16T04:43:20.517Z,1013.21
2018-02-16T04:44:20.530Z,1013.24
2018-02-16T04:45:20.530Z,1013.25
2018-02-16T04:46:20.551Z,1013.29
2018-02-16T04:47:20.550Z,1013.28
2018-02-16T04:48:20.561Z,1013.27
2018-02-16T04:49:20.573Z,1013.26
2018-02-16T04:50:20.592Z,1013.31
2018-02-16T04:51:20.601Z,1013.27
2018-02-16T04:52:20.609Z,1013.33
2018-02-16T04:53:20.617Z,1013.36
2018-02-16T04:54:20.627Z,1013.36
2018-02-16T04:55:20.633Z,1013.35
2018-02-16T04:56:20.647Z,1013.37
2018-02-16T04:57:20.654Z,1013.40
2018-02-16T04:58:20.662Z,1013.39
2018-02-16T04:59:20.687Z,1013.39
2018-02-16T05:00:20.698Z,1013.37
2018-02-16T05:01:20.703Z,1013.36
2018-02-16T05:02:20.711Z,1013.39
2018-02-16T05:03:20.716Z,1013.36
2018-02-16T05:04:20.725Z,1013.39
2018-02-16T05:05:20.741Z,1013.41
2018-02-16T05:06:20.745Z,1013.43
2018-02-16T05:07:20.771Z,1013.41
2018-02-16T05:08:20.780Z,1013.44
2018-02-16T05:09:20.784Z,1013.43
2018-02-16T05:10:20.797Z,1013.43
2018-02-16T05:11:20.801Z,1013.47
2018-02-16T05:12:20.811Z,1013.49
2018-02-16T05:13:20.823Z,1013.51
2018-02-16T05:14:20.830Z,1013.51
2018-02-16T05:15:20.851Z,1013.53
2018-02-16T05:16:20.862Z,1013.48
2018-02-16T05:17:20.868Z,1013.55
2018-02-16T05:18:20.881Z,1013.54
2018-02-16T05:19:20.886Z,1013.49
2018-02-16T05:20:20.897Z,1013.56
2018-02-16T05:21:20.911Z,1013.55
2018-02-16T05:22:20.917Z,1013.55
2018-02-16T05:23:20.923Z,1013.56
2018-02-16T05:24:20.934Z,1013.65
2018-02-16T05:25:20.953Z,1013.60
2018-02-16T05:26:20.960Z,1013.65
2018-02-16T05:27:20.973Z,1013.64
2018-02-16T05:28:20.983Z,1013.65
2018-02-16T05:29:20.987Z,1013.67
2018-02-16T05:30:21.016Z,1013.70
2018-02-16T05:31:21.003Z,1013.71
2018-02-16T05:32:21.010Z,1013.74
2018-02-16T05:33:21.026Z,1013.77
2018-02-16T05:34:21.047Z,1013.80
2018-02-16T05:35:21.056Z,1013.82
2018-02-16T05:36:21.066Z,1013.79
2018-02-16T05:37:21.070Z,1013.78
2018-02-16T05:38:21.091Z,1013.86
2018-02-16T05:39:21.089Z,1013.84
2018-02-16T05:40:21.096Z,1013.91
2018-02-16T05:41:21.109Z,1013.92
2018-02-16T05:42:21.120Z,1013.89
2018-02-16T05:43:21.140Z,1013.91
2018-02-16T05:44:21.147Z,1013.92
2018-02-16T05:45:21.156Z,1013.93
2018-02-16T05:46:21.167Z,1013.94
2018-02-16T05:47:21.179Z,1013.99
2018-02-16T05:48:21.180Z,1013.96
2018-02-16T05:49:21.193Z,1013.99
2018-02-16T05:50:21.201Z,1013.97
2018-02-16T05:51:21.210Z,1013.96
2018-02-16T05:52:21.219Z,1013.98
2018-02-16T05:53:21.252Z,1014.02
2018-02-16T05:54:21.251Z,1014.01
2018-02-16T05:55:21.255Z,1014.03
2018-02-16T05:56:21.270Z,1014.02
2018-02-16T05:57:21.277Z,1014.02
2018-02-16T05:58:21.282Z,1014.03
2018-02-16T05:59:21.296Z,1014.05
2018-02-16T06:00:21.309Z,1014.07
2018-02-16T06:01:21.309Z,1014.06
2018-02-16T06:02:21.327Z,1014.07
2018-02-16T06:03:21.343Z,1014.04
2018-02-16T06:04:21.351Z,1014.06
2018-02-16T06:05:21.363Z,1014.10
2018-02-16T06:06:21.365Z,1014.05
2018-02-16T06:07:21.383Z,1014.06
2018-02-16T06:08:21.391Z,1014.08
2018-02-16T06:09:21.395Z,1014.08
2018-02-16T06:10:21.404Z,1014.11
2018-02-16T06:11:21.413Z,1014.09
2018-02-16T06:12:21.420Z,1014.08
2018-02-16T06:13:21.431Z,1014.08
2018-02-16T06:14:21.451Z,1014.10
2018-02-16T06:15:21.460Z,1014.11
2018-02-16T06:16:21.469Z,1014.17
2018-02-16T06:17:21.474Z,1014.11
2018-02-16T06:18:21.489Z,1014.15
2018-02-16T06:19:21.493Z,1014.20
2018-02-16T06:20:21.506Z,1014.23
2018-02-16T06:21:21.515Z,1014.21
2018-02-16T06:22:21.519Z,1014.19
2018-02-16T06:23:21.537Z,1014.20
2018-02-16T06:24:21.545Z,1014.21
2018-02-16T06:25:21.564Z,1014.22
2018-02-16T06:26:21.576Z,1014.21
2018-02-16T06:27:21.579Z,1014.22
2018-02-16T06:28:21.587Z,1014.18
2018-02-16T06:29:21.600Z,1014.19
2018-02-16T06:30:21.607Z,1014.24
2018-02-16T06:31:21.640Z,1014.23
2018-02-16T06:32:21.624Z,1014.24
2018-02-16T06:33:21.629Z,1014.29
2018-02-16T06:34:21.646Z,1014.29
2018-02-16T06:35:21.662Z,1014.32
2018-02-16T06:36:21.674Z,1014.33
2018-02-16T06:37:21.684Z,1014.33
2018-02-16T06:38:21.692Z,1014.36
2018-02-16T06:39:21.700Z,1014.33
2018-02-16T06:40:21.711Z,1014.31
2018-02-16T06:41:21.717Z,1014.37
2018-02-16T06:42:21.728Z,1014.29
2018-02-16T06:43:21.734Z,1014.25
2018-02-16T06:44:21.745Z,1014.24
2018-02-16T06:45:21.757Z,1014.27
2018-02-16T06:46:21.772Z,1014.25
2018-02-16T06:47:21.785Z,1014.27
2018-02-16T06:48:21.793Z,1014.33
2018-02-16T06:49:21.800Z,1014.28
2018-02-16T06:50:21.809Z,1014.34
2018-02-16T06:51:21.817Z,1014.36
2018-02-16T06:52:21.825Z,1014.40
2018-02-16T06:53:21.842Z,1014.42
2018-02-16T06:54:21.842Z,1014.45
2018-02-16T06:55:21.857Z,1014.43
2018-02-16T06:56:21.869Z,1014.47
2018-02-16T06:57:21.884Z,1014.50
2018-02-16T06:58:21.896Z,1014.50
2018-02-16T06:59:21.897Z,1014.54
2018-02-16T07:00:21.907Z,1014.62
2018-02-16T07:01:21.924Z,1014.64
2018-02-16T07:02:21.924Z,1014.65
2018-02-16T07:03:21.987Z,1014.70
2018-02-16T07:04:21.947Z,1014.68
2018-02-16T07:05:21.955Z,1014.71
2018-02-16T07:06:21.967Z,1014.71
2018-02-16T07:07:21.984Z,1014.66
2018-02-16T07:08:21.992Z,1014.72
2018-02-16T07:09:22.009Z,1014.73
2018-02-16T07:10:22.008Z,1014.72
2018-02-16T07:11:22.021Z,1014.73
2018-02-16T07:12:22.031Z,1014.71
2018-02-16T07:13:22.035Z,1014.68
2018-02-16T07:14:22.053Z,1014.77
2018-02-16T07:15:22.059Z,1014.75
2018-02-16T07:16:22.065Z,1014.75
2018-02-16T07:17:22.092Z,1014.79
2018-02-16T07:18:22.096Z,1014.77
2018-02-16T07:19:22.107Z,1014.82
2018-02-16T07:20:22.117Z,1014.81
2018-02-16T07:21:22.121Z,1014.85
2018-02-16T07:22:22.138Z,1014.87
2018-02-16T07:23:22.140Z,1014.90
2018-02-16T07:24:22.145Z,1014.90
2018-02-16T07:25:22.163Z,1014.94
2018-02-16T07:26:22.177Z,1014.99
2018-02-16T07:27:22.190Z,1015.02
2018-02-16T07:28:22.199Z,1015.06
2018-02-16T07:29:22.209Z,1015.04
2018-02-16T07:30:22.232Z,1015.07
2018-02-16T07:31:22.224Z,1015.10
2018-02-16T07:32:22.229Z,1015.09
2018-02-16T07:33:22.258Z,1015.09
2018-02-16T07:34:22.263Z,1015.05
2018-02-16T07:35:22.281Z,1015.08
2018-02-16T07:36:22.277Z,1015.09
2018-02-16T07:37:22.295Z,1015.11
2018-02-16T07:38:22.297Z,1015.12
2018-02-16T07:39:22.312Z,1015.08
2018-02-16T07:40:22.331Z,1015.14
2018-02-16T07:41:22.340Z,1015.17
2018-02-16T07:42:22.348Z,1015.08
2018-02-16T07:43:22.351Z,1015.18
2018-02-16T07:44:22.360Z,1015.15
2018-02-16T07:45:22.373Z,1015.18
2018-02-16T07:46:22.383Z,1015.17
2018-02-16T07:47:22.405Z,1015.17
2018-02-16T07:48:22.416Z,1015.16
2018-02-16T07:49:22.424Z,1015.19
2018-02-16T07:50:22.433Z,1015.20
2018-02-16T07:51:22.440Z,1015.20
2018-02-16T07:52:22.447Z,1015.21
2018-02-16T07:53:22.478Z,1015.24
2018-02-16T07:54:22.480Z,1015.26
2018-02-16T07:55:22.487Z,1015.29
2018-02-16T07:56:22.502Z,1015.27
2018-02-16T07:57:22.502Z,1015.28
2018-02-16T07:58:22.531Z,1015.27
2018-02-16T07:59:22.533Z,1015.26
2018-02-16T08:00:22.542Z,1015.29
2018-02-16T08:01:22.561Z,1015.28
2018-02-16T08:02:22.562Z,1015.30
2018-02-16T08:03:22.583Z,1015.29
2018-02-16T08:04:22.593Z,1015.32
2018-02-16T08:05:22.597Z,1015.31
2018-02-16T08:06:22.610Z,1015.35
2018-02-16T08:07:22.633Z,1015.34
2018-02-16T08:08:22.625Z,1015.37
2018-02-16T08:09:22.650Z,1015.36
2018-02-16T08:10:22.663Z,1015.33
2018-02-16T08:11:22.671Z,1015.31
2018-02-16T08:12:22.678Z,1015.33
2018-02-16T08:13:22.697Z,1015.32
2018-02-16T08:14:22.711Z,1015.36
2018-02-16T08:15:22.711Z,1015.33
2018-02-16T08:16:22.720Z,1015.32
2018-02-16T08:17:22.739Z,1015.37
2018-02-16T08:18:22.756Z,1015.36
2018-02-16T08:19:22.765Z,1015.35
2018-02-16T08:20:22.774Z,1015.40
2018-02-16T08:21:22.779Z,1015.39
2018-02-16T08:22:22.793Z,1015.41
2018-02-16T08:23:22.809Z,1015.43
2018-02-16T08:24:22.822Z,1015.43
2018-02-16T08:25:22.831Z,1015.47
2018-02-16T08:26:22.837Z,1015.54
2018-02-16T08:27:22.859Z,1015.49
2018-02-16T08:28:22.868Z,1015.50
2018-02-16T08:29:22.878Z,1015.47
2018-02-16T08:30:22.888Z,1015.47
2018-02-16T08:31:22.916Z,1015.51
2018-02-16T08:32:22.915Z,1015.49
2018-02-16T08:33:22.931Z,1015.56
2018-02-16T08:34:22.946Z,1015.54
2018-02-16T08:35:22.945Z,1015.48
2018-02-16T08:36:22.966Z,1015.50
2018-02-16T08:37:22.974Z,1015.49
2018-02-16T08:38:22.984Z,1015.53
2018-02-16T08:39:23.004Z,1015.55
2018-02-16T08:40:23.013Z,1015.61
2018-02-16T08:41:23.026Z,1015.62
2018-02-16T08:42:23.027Z,1015.64
2018-02-16T08:43:23.045Z,1015.67
2018-02-16T08:44:23.065Z,1015.72
2018-02-16T08:45:23.065Z,1015.67
2018-02-16T08:46:23.082Z,1015.68
2018-02-16T08:47:23.099Z,1015.73
2018-02-16T08:48:23.109Z,1015.73
2018-02-16T08:49:23.120Z,1015.70
2018-02-16T08:50:23.131Z,1015.75
2018-02-16T08:51:23.136Z,1015.78
2018-02-16T08:52:23.156Z,1015.77
2018-02-16T08:53:23.162Z,1015.78
2018-02-16T08:54:23.179Z,1015.84
2018-02-16T08:55:23.181Z,1015.89
2018-02-16T08:56:23.200Z,1015.87
2018-02-16T08:57:23.219Z,1015.89
2018-02-16T08:58:23.224Z,1015.88
2018-02-16T08:59:23.247Z,1015.94
2018-02-16T09:00:23.265Z,1015.84
2018-02-16T09:01:23.259Z,1015.88
2018-02-16T09:02:23.272Z,1015.85
2018-02-16T09:03:23.288Z,1015.86
2018-02-16T09:04:23.297Z,1015.83
2018-02-16T09:05:23.319Z,1015.92
2018-02-16T09:06:23.329Z,1015.93
2018-02-16T09:07:23.344Z,1015.84
2018-02-16T09:08:23.350Z,1015.86
2018-02-16T09:09:23.358Z,1015.80
2018-02-16T09:10:23.381Z,1015.88
2018-02-16T09:11:23.386Z,1015.85
2018-02-16T09:12:23.395Z,1015.87
2018-02-16T09:13:23.424Z,1015.93
2018-02-16T09:14:23.463Z,1015.92
2018-02-16T09:15:23.437Z,1015.95
2018-02-16T09:16:23.458Z,1015.95
2018-02-16T09:17:23.468Z,1015.94
2018-02-16T09:18:23.478Z,1016.01
2018-02-16T09:19:23.496Z,1016.01
2018-02-16T09:20:23.505Z,1015.98
2018-02-16T09:21:23.519Z,1015.96
2018-02-16T09:22:23.532Z,1015.95
2018-02-16T09:23:23.549Z,1015.99
2018-02-16T09:24:23.562Z,1016.04
2018-02-16T09:25:23.562Z,1016.08
2018-02-16T09:26:23.589Z,1016.12
2018-02-16T09:27:23.590Z,1016.14
2018-02-16T09:28:23.599Z,1016.12
2018-02-16T09:29:23.624Z,1016.15
2018-02-16T09:30:23.631Z,1016.12
2018-02-16T09:31:23.655Z,1016.10
2018-02-16T09:32:23.665Z,1016.16
2018-02-16T09:33:23.670Z,1016.14
2018-02-16T09:34:23.695Z,1016.23
2018-02-16T09:35:23.698Z,1016.17
2018-02-16T09:36:23.711Z,1016.23
2018-02-16T09:37:23.734Z,1016.19
2018-02-16T09:38:23.739Z,1016.22
2018-02-16T09:39:23.752Z,1016.20
2018-02-16T09:40:23.773Z,1016.24
2018-02-16T09:41:23.782Z,1016.19
2018-02-16T09:42:23.787Z,1016.16
2018-02-16T09:43:23.814Z,1016.15
2018-02-16T09:44:23.822Z,1016.20
2018-02-16T09:45:23.825Z,1016.21
2018-02-16T09:46:23.849Z,1016.25
2018-02-16T09:47:23.855Z,1016.29
2018-02-16T09:48:23.864Z,1016.33
2018-02-16T09:49:23.888Z,1016.31
2018-02-16T09:50:23.896Z,1016.31
2018-02-16T09:51:23.929Z,1016.26
2018-02-16T09:52:23.930Z,1016.27
2018-02-16T09:53:23.937Z,1016.33
2018-02-16T09:54:23.958Z,1016.32
2018-02-16T09:55:23.968Z,1016.36
2018-02-16T09:56:23.972Z,1016.34
2018-02-16T09:57:24.006Z,1016.44
2018-02-16T09:58:24.005Z,1016.34
2018-02-16T09:59:24.041Z,1016.32
2018-02-16T10:00:24.039Z,1016.43
2018-02-16T10:01:24.046Z,1016.39
2018-02-16T10:02:24.073Z,1016.37
2018-02-16T10:03:24.076Z,1016.43
2018-02-16T10:04:24.084Z,1016.45
2018-02-16T10:05:24.108Z,1016.43
2018-02-16T10:06:24.111Z,1016.50
2018-02-16T10:07:24.143Z,1016.53
2018-02-16T10:08:24.149Z,1016.51
2018-02-16T10:09:24.151Z,1016.49
2018-02-16T10:10:24.178Z,1016.54
2018-02-16T10:11:24.183Z,1016.56
2018-02-16T10:12:24.204Z,1016.55
2018-02-16T10:13:24.216Z,1016.57
2018-02-16T10:14:24.222Z,1016.56
2018-02-16T10:15:24.246Z,1016.63
2018-02-16T10:16:24.257Z,1016.65
2018-02-16T10:17:24.272Z,1016.63
2018-02-16T10:18:24.284Z,1016.65
2018-02-16T10:19:24.294Z,1016.65
2018-02-16T10:20:24.315Z,1016.67
2018-02-16T10:21:24.326Z,1016.65
2018-02-16T10:22:24.344Z,1016.63
2018-02-16T10:23:24.360Z,1016.73
2018-02-16T10:24:24.365Z,1016.75
2018-02-16T10:25:24.382Z,1016.80
2018-02-16T10:26:24.392Z,1016.74
2018-02-16T10:27:24.410Z,1016.80
2018-02-16T10:28:24.418Z,1016.83
2018-02-16T10:29:24.444Z,1016.78
2018-02-16T10:30:24.457Z,1016.82
2018-02-16T10:31:24.463Z,1016.85
2018-02-16T10:32:24.488Z,1016.87
2018-02-16T10:33:24.489Z,1016.87
2018-02-16T10:34:24.516Z,1016.88
2018-02-16T10:35:24.520Z,1016.92
2018-02-16T10:36:24.541Z,1016.96
2018-02-16T10:37:24.555Z,1016.91
2018-02-16T10:38:24.571Z,1016.90
2018-02-16T10:39:24.583Z,1016.89
2018-02-16T10:40:24.605Z,1016.92
2018-02-16T10:41:24.609Z,1016.95
2018-02-16T10:42:24.638Z,1016.94
2018-02-16T10:43:24.643Z,1016.90
2018-02-16T10:44:24.663Z,1017.02
2018-02-16T10:45:24.688Z,1016.99
2018-02-16T10:46:24.696Z,1017.10
2018-02-16T10:47:24.723Z,1017.08
2018-02-16T10:48:24.744Z,1017.14
2018-02-16T10:49:24.747Z,1017.12
2018-02-16T10:50:24.761Z,1017.07
2018-02-16T10:51:24.776Z,1017.12
2018-02-16T10:52:24.798Z,1017.11
2018-02-16T10:53:24.813Z,1017.08
2018-02-16T10:54:24.827Z,1017.13
2018-02-16T10:55:24.850Z,1017.15
2018-02-16T10:56:24.860Z,1017.05
2018-02-16T10:57:24.881Z,1017.12
2018-02-16T10:58:24.891Z,1017.11
2018-02-16T10:59:24.909Z,1017.01
2018-02-16T11:00:24.920Z,1017.09
2018-02-16T11:01:24.943Z,1017.10
2018-02-16T11:02:24.964Z,1017.05
2018-02-16T11:03:24.972Z,1017.08
2018-02-16T11:04:24.996Z,1017.06
2018-02-16T11:05:25.002Z,1017.06
2018-02-16T11:06:25.024Z,1017.07
2018-02-16T11:07:25.044Z,1017.09
2018-02-16T11:08:25.052Z,1017.13
2018-02-16T11:09:25.075Z,1017.27
2018-02-16T11:10:25.082Z,1017.15
2018-02-16T11:11:25.110Z,1017.18
2018-02-16T11:12:25.129Z,1017.17
2018-02-16T11:13:25.134Z,1017.13
2018-02-16T11:14:25.161Z,1017.24
2018-02-16T11:15:25.176Z,1017.15
2018-02-16T11:16:25.182Z,1017.14
2018-02-16T11:17:25.196Z,1017.25
2018-02-16T11:18:25.237Z,1017.19
2018-02-16T11:19:25.246Z,1017.22
2018-02-16T11:20:25.282Z,1017.21
2018-02-16T11:21:25.271Z,1017.29
2018-02-16T11:22:25.285Z,1017.26
2018-02-16T11:23:25.297Z,1017.28
2018-02-16T11:24:25.319Z,1017.19
2018-02-16T11:25:25.333Z,1017.14
2018-02-16T11:26:25.351Z,1017.27
2018-02-16T11:27:25.376Z,1017.30
2018-02-16T11:28:25.385Z,1017.23
2018-02-16T11:29:25.399Z,1017.26
2018-02-16T11:30:25.417Z,1017.27
2018-02-16T11:31:25.433Z,1017.26
2018-02-16T11:32:25.456Z,1017.26
2018-02-16T11:33:25.483Z,1017.28
2018-02-16T11:34:25.495Z,1017.27
2018-02-16T11:35:25.509Z,1017.25
2018-02-16T11:36:25.521Z,1017.08
2018-02-16T11:37:25.536Z,1017.17
2018-02-16T11:38:25.560Z,1017.27
2018-02-16T11:39:25.576Z,1017.23
2018-02-16T11:40:25.584Z,1017.25
2018-02-16T11:41:25.598Z,1017.30
2018-02-16T11:42:25.616Z,1017.32
2018-02-16T11:43:25.642Z,1017.33
2018-02-16T11:44:25.650Z,1017.32
2018-02-16T11:45:25.712Z,1017.30
2018-02-16T11:46:25.691Z,1017.24
2018-02-16T11:47:25.701Z,1017.37
2018-02-16T11:48:25.718Z,1017.38
2018-02-16T11:49:25.749Z,1017.44
2018-02-16T11:50:25.753Z,1017.41
2018-02-16T11:51:25.781Z,1017.41
2018-02-16T11:52:25.808Z,1017.28
2018-02-16T11:53:25.804Z,1017.19
2018-02-16T11:54:25.827Z,1017.20
2018-02-16T11:55:25.849Z,1017.28
2018-02-16T11:56:25.857Z,1017.25
2018-02-16T11:57:25.877Z,1017.29
2018-02-16T11:58:25.887Z,1017.27
2018-02-16T11:59:25.909Z,1017.25
2018-02-16T12:00:25.924Z,1017.29
2018-02-16T12:01:25.943Z,1017.34
2018-02-16T12:02:25.957Z,1017.23
2018-02-16T12:03:25.982Z,1017.20
2018-02-16T12:04:25.991Z,1017.29
2018-02-16T12:05:26.008Z,1017.26